createdAt,value
2022-11-16T00:01:45.581Z,9.25
2022-11-16T00:04:15.465Z,7.22
2022-11-16T00:06:42.382Z,8.90
2022-11-16T00:09:24.114Z,11.70
2022-11-16T00:12:02.748Z,11.50
2022-11-16T00:14:32.248Z,9.82
2022-11-16T00:16:59.983Z,7.95
2022-11-16T00:19:27.471Z,6.75
2022-11-16T00:21:54.623Z,6.90
2022-11-16T00:24:23.432Z,7.72
2022-11-16T00:26:50.709Z,8.35
2022-11-16T00:29:20.258Z,8.15
2022-11-16T00:31:47.709Z,6.43
2022-11-16T00:34:14.897Z,6.38
2022-11-16T00:36:42.023Z,8.93
2022-11-16T00:39:11.870Z,7.20
2022-11-16T00:41:38.754Z,7.93
2022-11-16T00:44:05.989Z,10.60
2022-11-16T00:46:32.883Z,9.15
2022-11-16T00:48:59.626Z,9.45
2022-11-16T00:51:26.721Z,7.28
2022-11-16T00:53:53.654Z,8.27
2022-11-16T00:56:21.332Z,6.55
2022-11-16T00:58:48.113Z,4.30
2022-11-16T01:01:15.675Z,5.40
2022-11-16T01:03:42.966Z,5.75
2022-11-16T01:06:11.633Z,5.78
2022-11-16T01:08:39.708Z,5.95
2022-11-16T01:11:30.895Z,8.07
2022-11-16T01:13:58.712Z,7.25
2022-11-16T01:16:25.463Z,7.57
2022-11-16T01:18:54.639Z,6.28
2022-11-16T01:21:22.691Z,5.85
2022-11-16T01:23:49.865Z,5.22
2022-11-16T01:26:16.796Z,5.97
2022-11-16T01:28:44.137Z,8.45
2022-11-16T01:31:15.541Z,5.68
2022-11-16T01:33:42.438Z,6.13
2022-11-16T01:36:17.509Z,6.05
2022-11-16T01:38:46.645Z,6.68
2022-11-16T01:41:18.568Z,6.22
2022-11-16T01:44:00.233Z,5.22
2022-11-16T01:46:33.136Z,7.55
2022-11-16T01:49:14.471Z,9.02
2022-11-16T01:51:45.148Z,8.43
2022-11-16T01:54:14.218Z,6.90
2022-11-16T01:56:54.146Z,9.25
2022-11-16T01:59:32.048Z,9.13
2022-11-16T02:02:01.283Z,9.77
2022-11-16T02:04:29.905Z,9.93
2022-11-16T02:07:19.572Z,9.90
2022-11-16T02:09:53.742Z,6.40
2022-11-16T02:12:57.802Z,8.63
2022-11-16T02:15:33.538Z,7.68
2022-11-16T02:18:53.209Z,5.78
2022-11-16T02:21:45.002Z,8.00
2022-11-16T02:24:42.324Z,7.53
2022-11-16T02:27:23.636Z,6.63
2022-11-16T02:29:52.795Z,5.28
2022-11-16T02:32:30.396Z,6.40
2022-11-16T02:35:12.301Z,8.52
2022-11-16T02:37:50.631Z,6.50
2022-11-16T02:40:20.894Z,8.25
2022-11-16T02:43:07.397Z,6.13
2022-11-16T02:45:40.614Z,6.40
2022-11-16T02:48:24.675Z,6.53
2022-11-16T02:50:53.440Z,5.22
2022-11-16T02:53:22.083Z,7.85
2022-11-16T02:55:49.036Z,8.80
2022-11-16T02:58:20.833Z,7.13
2022-11-16T03:01:18.333Z,5.43
2022-11-16T03:04:01.621Z,6.93
2022-11-16T03:06:31.568Z,6.00
2022-11-16T03:08:59.008Z,5.35
2022-11-16T03:11:48.926Z,5.70
2022-11-16T03:14:20.626Z,5.13
2022-11-16T03:16:52.966Z,5.45
2022-11-16T03:19:34.004Z,5.13
2022-11-16T03:22:09.847Z,4.97
2022-11-16T03:24:39.158Z,7.53
2022-11-16T03:27:29.366Z,6.50
2022-11-16T03:30:04.928Z,6.10
2022-11-16T03:32:56.589Z,4.90
2022-11-16T03:36:01.934Z,4.45
2022-11-16T03:38:33.601Z,4.18
2022-11-16T03:41:08.474Z,4.40
2022-11-16T03:43:38.098Z,4.20
2022-11-16T03:46:05.846Z,4.00
2022-11-16T03:48:39.209Z,3.30
2022-11-16T03:51:13.264Z,3.88
2022-11-16T03:53:40.775Z,4.43
2022-11-16T03:56:09.385Z,4.30
2022-11-16T03:58:37.777Z,5.88
2022-11-16T04:01:04.776Z,5.45
2022-11-16T04:03:32.117Z,4.20
2022-11-16T04:06:17.793Z,5.75
2022-11-16T04:09:03.281Z,3.88
2022-11-16T04:11:48.789Z,3.95
2022-11-16T04:14:44.739Z,3.45
2022-11-16T04:17:34.984Z,4.28
2022-11-16T04:20:21.066Z,3.67
2022-11-16T04:23:21.960Z,2.85
2022-11-16T04:25:51.197Z,3.35
2022-11-16T04:28:24.291Z,3.35
2022-11-16T04:31:32.943Z,2.47
2022-11-16T04:34:24.822Z,3.20
2022-11-16T04:37:13.831Z,3.45
2022-11-16T04:39:41.250Z,3.40
2022-11-16T04:42:17.474Z,3.72
2022-11-16T04:45:05.042Z,4.45
2022-11-16T04:47:49.148Z,6.38
2022-11-16T04:50:17.664Z,5.40
2022-11-16T04:52:44.389Z,4.85
2022-11-16T04:55:13.535Z,4.80
2022-11-16T04:57:40.562Z,5.88
2022-11-16T05:00:09.071Z,7.65
2022-11-16T05:02:37.580Z,6.40
2022-11-16T05:05:04.890Z,6.35
2022-11-16T05:07:32.713Z,5.70
2022-11-16T05:10:06.846Z,5.47
2022-11-16T05:12:34.685Z,4.95
2022-11-16T05:15:05.900Z,5.80
2022-11-16T05:17:34.096Z,5.70
2022-11-16T05:20:40.483Z,5.07
2022-11-16T05:23:28.166Z,4.53
2022-11-16T05:25:56.864Z,3.65
2022-11-16T05:28:23.590Z,4.65
2022-11-16T05:30:51.252Z,3.88
2022-11-16T05:33:22.228Z,4.03
2022-11-16T05:35:51.646Z,4.25
2022-11-16T05:38:21.390Z,4.25
2022-11-16T05:40:52.173Z,5.35
2022-11-16T05:43:19.005Z,6.55
2022-11-16T05:45:56.286Z,6.57
2022-11-16T05:48:23.287Z,7.10
2022-11-16T05:50:50.141Z,4.85
2022-11-16T05:53:24.829Z,4.35
2022-11-16T05:55:52.093Z,5.00
2022-11-16T05:58:20.249Z,4.10
2022-11-16T06:00:48.940Z,4.53
2022-11-16T06:03:17.625Z,6.07
2022-11-16T06:05:44.549Z,4.68
2022-11-16T06:08:13.983Z,5.68
2022-11-16T06:10:41.395Z,7.55
2022-11-16T06:13:08.386Z,6.70
2022-11-16T06:15:38.262Z,6.35
2022-11-16T06:18:06.755Z,6.22
2022-11-16T06:20:34.784Z,6.45
2022-11-16T06:23:03.517Z,7.10
2022-11-16T06:25:33.790Z,5.35
2022-11-16T06:28:04.100Z,5.05
2022-11-16T06:30:34.512Z,4.80
2022-11-16T06:33:02.739Z,4.72
2022-11-16T06:35:29.924Z,4.50
2022-11-16T06:37:58.030Z,5.55
2022-11-16T06:40:26.212Z,5.28
2022-11-16T06:42:53.426Z,4.55
2022-11-16T06:45:20.841Z,4.45
2022-11-16T06:50:19.410Z,2.88
2022-11-16T06:52:48.577Z,3.50
2022-11-16T06:55:16.926Z,3.42
2022-11-16T06:57:44.058Z,2.88
2022-11-16T07:00:12.843Z,2.67
2022-11-16T07:02:40.519Z,2.90
2022-11-16T07:05:10.996Z,3.47
2022-11-16T07:07:39.447Z,2.80
2022-11-16T07:10:06.568Z,2.20
2022-11-16T07:12:33.464Z,1.92
2022-11-16T07:15:01.654Z,1.98
2022-11-16T07:17:31.317Z,2.47
2022-11-16T07:19:58.190Z,2.20
2022-11-16T07:22:25.506Z,2.38
2022-11-16T07:24:53.546Z,2.10
2022-11-16T07:27:21.299Z,2.55
2022-11-16T07:29:50.628Z,1.98
2022-11-16T07:32:39.929Z,2.58
2022-11-16T07:35:15.559Z,2.50
2022-11-16T07:37:42.639Z,2.60
2022-11-16T07:40:10.765Z,2.47
2022-11-16T07:42:38.802Z,2.42
2022-11-16T07:45:29.041Z,2.90
2022-11-16T07:48:05.428Z,2.40
2022-11-16T07:50:50.839Z,2.33
2022-11-16T07:53:19.220Z,2.10
2022-11-16T07:55:53.043Z,3.45
2022-11-16T07:58:21.668Z,2.35
2022-11-16T08:00:49.395Z,2.75
2022-11-16T08:03:21.799Z,2.65
2022-11-16T08:06:21.264Z,2.80
2022-11-16T08:08:48.312Z,3.10
2022-11-16T08:11:17.641Z,3.28
2022-11-16T08:13:44.906Z,4.05
2022-11-16T08:16:18.207Z,3.10
2022-11-16T08:18:47.239Z,3.40
2022-11-16T08:21:17.205Z,3.15
2022-11-16T08:23:45.485Z,3.00
2022-11-16T08:26:15.912Z,3.05
2022-11-16T08:28:48.491Z,3.30
2022-11-16T08:31:18.323Z,3.20
2022-11-16T08:33:50.491Z,3.28
2022-11-16T08:36:17.865Z,2.50
2022-11-16T08:38:50.421Z,2.90
2022-11-16T08:41:20.501Z,3.33
2022-11-16T08:43:47.838Z,3.40
2022-11-16T08:46:15.532Z,2.80
2022-11-16T08:48:44.624Z,3.65
2022-11-16T08:51:19.278Z,3.65
2022-11-16T08:53:57.502Z,3.22
2022-11-16T08:56:30.225Z,3.50
2022-11-16T08:58:59.167Z,3.35
2022-11-16T09:01:29.521Z,3.47
2022-11-16T09:03:56.646Z,3.42
2022-11-16T09:06:25.815Z,3.30
2022-11-16T09:08:53.321Z,3.42
2022-11-16T09:11:22.659Z,3.40
2022-11-16T09:13:51.600Z,2.88
2022-11-16T09:16:21.032Z,3.78
2022-11-16T09:18:50.073Z,3.78
2022-11-16T09:21:19.123Z,2.80
2022-11-16T09:23:47.108Z,3.05
2022-11-16T09:26:14.493Z,2.35
2022-11-16T09:28:41.377Z,3.67
2022-11-16T09:31:10.086Z,3.47
2022-11-16T09:33:37.065Z,3.95
2022-11-16T09:36:09.163Z,3.00
2022-11-16T09:39:13.324Z,2.90
2022-11-16T09:41:52.300Z,2.70
2022-11-16T09:44:52.877Z,3.03
2022-11-16T09:47:22.650Z,2.92
2022-11-16T09:49:58.186Z,4.95
2022-11-16T09:52:30.445Z,4.25
2022-11-16T09:54:59.968Z,4.38
2022-11-16T09:57:37.249Z,3.83
2022-11-16T10:00:23.734Z,4.03
2022-11-16T10:03:04.093Z,5.50
2022-11-16T10:05:39.072Z,4.40
2022-11-16T10:08:25.156Z,3.30
2022-11-16T10:11:20.849Z,2.78
2022-11-16T10:16:32.859Z,2.67
2022-11-16T10:19:05.430Z,2.83
2022-11-16T10:21:33.159Z,2.70
2022-11-16T10:24:02.521Z,3.28
2022-11-16T10:26:50.631Z,2.65
2022-11-16T10:29:49.867Z,2.95
2022-11-16T10:32:21.168Z,2.60
2022-11-16T10:34:54.008Z,3.15
2022-11-16T10:37:22.430Z,2.90
2022-11-16T10:39:53.355Z,3.47
2022-11-16T10:42:28.901Z,3.20
2022-11-16T10:45:08.158Z,3.75
2022-11-16T10:47:44.867Z,3.70
2022-11-16T10:50:32.631Z,3.50
2022-11-16T10:53:00.899Z,4.18
2022-11-16T10:55:30.593Z,3.83
2022-11-16T10:58:01.576Z,3.65
2022-11-16T11:00:33.788Z,3.78
2022-11-16T11:03:01.096Z,2.90
2022-11-16T11:05:27.941Z,3.25
2022-11-16T11:08:03.697Z,3.00
2022-11-16T11:10:35.652Z,3.20
2022-11-16T11:13:11.543Z,2.90
2022-11-16T11:15:39.945Z,3.08
2022-11-16T11:18:15.609Z,6.22
2022-11-16T11:20:46.158Z,5.65
2022-11-16T11:23:23.758Z,3.22
2022-11-16T11:25:56.566Z,2.85
2022-11-16T11:28:31.952Z,3.03
2022-11-16T11:31:01.306Z,2.88
2022-11-16T11:33:39.639Z,3.05
2022-11-16T11:36:13.343Z,2.92
2022-11-16T11:39:25.566Z,2.45
2022-11-16T11:42:10.796Z,2.95
2022-11-16T11:44:49.753Z,2.80
2022-11-16T11:47:56.608Z,3.45
2022-11-16T11:50:51.083Z,3.53
2022-11-16T11:53:29.936Z,3.92
2022-11-16T11:55:59.825Z,4.45
2022-11-16T11:58:31.122Z,3.55
2022-11-16T12:01:01.035Z,3.10
2022-11-16T12:03:28.048Z,3.97
2022-11-16T12:06:07.758Z,3.67
2022-11-16T12:08:57.011Z,3.92
2022-11-16T12:11:38.110Z,3.53
2022-11-16T12:14:33.407Z,3.50
2022-11-16T12:17:13.482Z,3.30
2022-11-16T12:20:01.839Z,3.17
2022-11-16T12:22:46.830Z,3.38
2022-11-16T12:25:51.143Z,2.35
2022-11-16T12:28:51.318Z,2.25
2022-11-16T12:31:33.441Z,2.22
2022-11-16T12:34:06.122Z,2.15
2022-11-16T12:36:32.842Z,1.73
2022-11-16T12:39:24.476Z,2.10
2022-11-16T12:42:13.268Z,2.50
2022-11-16T12:44:45.892Z,1.60
2022-11-16T12:47:46.869Z,1.90
2022-11-16T12:50:28.870Z,1.80
2022-11-16T12:53:25.753Z,1.67
2022-11-16T12:56:13.986Z,2.10
2022-11-16T12:58:52.700Z,1.80
2022-11-16T13:01:25.704Z,2.08
2022-11-16T13:04:01.502Z,2.03
2022-11-16T13:06:34.796Z,1.85
2022-11-16T13:09:30.895Z,1.73
2022-11-16T13:12:03.380Z,1.90
2022-11-16T13:14:34.952Z,2.47
2022-11-16T13:17:04.253Z,2.20
2022-11-16T13:19:31.895Z,2.10
2022-11-16T13:22:19.497Z,1.67
2022-11-16T13:24:48.850Z,1.90
2022-11-16T13:27:18.285Z,1.90
2022-11-16T13:30:03.799Z,1.60
2022-11-16T13:32:53.341Z,1.75
2022-11-16T13:35:21.029Z,1.63
2022-11-16T13:37:49.251Z,1.67
2022-11-16T13:40:30.995Z,2.13
2022-11-16T13:43:16.858Z,1.83
2022-11-16T13:45:57.294Z,2.45
2022-11-16T13:48:38.519Z,1.73
2022-11-16T13:51:18.986Z,1.92
2022-11-16T13:56:51.050Z,2.05
2022-11-16T13:59:25.409Z,1.90
2022-11-16T14:02:22.713Z,1.95
2022-11-16T14:05:33.948Z,1.80
2022-11-16T14:08:20.840Z,1.60
2022-11-16T14:10:50.673Z,1.70
2022-11-16T14:13:47.366Z,2.00
2022-11-16T14:16:20.190Z,1.77
2022-11-16T14:18:59.026Z,1.83
2022-11-16T14:21:26.776Z,2.20
2022-11-16T14:24:06.230Z,1.73
2022-11-16T14:27:17.032Z,2.00
2022-11-16T14:30:02.962Z,2.30
2022-11-16T14:32:43.495Z,1.90
2022-11-16T14:35:29.675Z,2.10
2022-11-16T14:38:02.394Z,2.70
2022-11-16T14:40:29.494Z,2.28
2022-11-16T14:43:15.921Z,2.20
2022-11-16T14:45:48.251Z,1.95
2022-11-16T14:48:17.739Z,2.13
2022-11-16T14:50:57.899Z,2.13
2022-11-16T14:53:26.479Z,2.17
2022-11-16T14:56:06.452Z,1.88
2022-11-16T14:58:33.309Z,2.30
2022-11-16T15:01:02.940Z,2.80
2022-11-16T15:03:35.540Z,2.58
2022-11-16T15:06:04.793Z,3.40
2022-11-16T15:08:58.123Z,2.83
2022-11-16T15:11:50.198Z,2.63
2022-11-16T15:14:22.723Z,2.53
2022-11-16T15:16:54.472Z,2.33
2022-11-16T15:19:22.112Z,2.15
2022-11-16T15:21:58.211Z,2.40
2022-11-16T15:24:32.184Z,2.60
2022-11-16T15:27:08.525Z,2.45
2022-11-16T15:29:36.286Z,2.60
2022-11-16T15:32:03.412Z,2.88
2022-11-16T15:34:31.479Z,3.30
2022-11-16T15:36:58.302Z,3.13
2022-11-16T15:39:32.334Z,2.55
2022-11-16T15:42:03.717Z,2.53
2022-11-16T15:44:31.980Z,2.70
2022-11-16T15:46:59.505Z,3.03
2022-11-16T15:49:32.447Z,3.28
2022-11-16T15:52:00.139Z,3.10
2022-11-16T15:54:54.971Z,3.33
2022-11-16T15:57:24.049Z,3.22
2022-11-16T15:59:57.272Z,3.28
2022-11-16T16:02:29.914Z,4.00
2022-11-16T16:04:56.934Z,4.60
2022-11-16T16:07:41.855Z,3.97
2022-11-16T16:10:13.207Z,3.20
2022-11-16T16:13:00.646Z,2.78
2022-11-16T16:15:36.585Z,3.28
2022-11-16T16:18:13.963Z,2.50
2022-11-16T16:20:48.838Z,3.40
2022-11-16T16:23:16.448Z,2.63
2022-11-16T16:25:49.077Z,2.25
2022-11-16T16:28:17.407Z,6.53
2022-11-16T16:30:44.342Z,7.10
2022-11-16T16:33:19.654Z,6.22
2022-11-16T16:35:49.891Z,4.97
2022-11-16T16:38:17.213Z,5.05
2022-11-16T16:40:44.088Z,5.97
2022-11-16T16:43:11.087Z,5.38
2022-11-16T16:45:41.664Z,8.93
2022-11-16T16:48:09.707Z,6.97
2022-11-16T16:50:37.393Z,4.72
2022-11-16T16:53:05.021Z,5.70
2022-11-16T16:55:36.974Z,4.55
2022-11-16T16:58:04.976Z,5.40
2022-11-16T17:00:32.413Z,4.50
2022-11-16T17:02:59.497Z,4.65
2022-11-16T17:05:27.115Z,4.28
2022-11-16T17:07:56.926Z,5.10
2022-11-16T17:10:24.384Z,4.38
2022-11-16T17:12:55.282Z,6.20
2022-11-16T17:15:22.904Z,4.20
2022-11-16T17:17:50.485Z,2.95
2022-11-16T17:20:17.853Z,3.75
2022-11-16T17:22:45.289Z,2.78
2022-11-16T17:25:12.630Z,3.55
2022-11-16T17:27:39.500Z,4.05
2022-11-16T17:30:07.375Z,3.60
2022-11-16T17:32:34.807Z,3.95
2022-11-16T17:35:01.836Z,3.38
2022-11-16T17:37:28.790Z,5.97
2022-11-16T17:39:55.875Z,12.75
2022-11-16T17:42:23.116Z,11.48
2022-11-16T17:44:50.095Z,10.88
2022-11-16T17:47:17.109Z,10.15
2022-11-16T17:49:44.221Z,11.63
2022-11-16T17:52:11.309Z,11.40
2022-11-16T17:54:38.358Z,9.55
2022-11-16T17:57:05.437Z,9.30
2022-11-16T17:59:32.986Z,7.22
2022-11-16T18:01:59.832Z,8.32
2022-11-16T18:04:34.593Z,7.38
2022-11-16T18:07:01.807Z,6.40
2022-11-16T18:09:29.079Z,6.57
2022-11-16T18:11:56.180Z,8.18
2022-11-16T18:14:23.085Z,7.38
2022-11-16T18:16:50.161Z,9.02
2022-11-16T18:19:19.253Z,8.75
2022-11-16T18:21:46.835Z,8.10
2022-11-16T18:24:13.957Z,10.18
2022-11-16T18:26:41.458Z,12.13
2022-11-16T18:29:15.924Z,10.35
2022-11-16T18:31:43.485Z,10.60
2022-11-16T18:34:15.775Z,9.13
2022-11-16T18:36:43.803Z,6.15
2022-11-16T18:39:10.841Z,6.30
2022-11-16T18:41:43.936Z,6.75
2022-11-16T18:44:14.981Z,6.53
2022-11-16T18:46:43.366Z,7.53
2022-11-16T18:49:10.331Z,10.93
2022-11-16T18:51:37.141Z,14.02
2022-11-16T18:54:04.138Z,14.15
2022-11-16T18:56:31.102Z,14.43
2022-11-16T18:58:57.804Z,16.63
2022-11-16T19:01:26.763Z,15.55
2022-11-16T19:03:56.163Z,16.60
2022-11-16T19:06:24.052Z,15.93
2022-11-16T19:09:03.992Z,23.08
2022-11-16T19:11:31.216Z,15.32
2022-11-16T19:14:00.892Z,12.98
2022-11-16T19:16:28.372Z,13.52
2022-11-16T19:18:55.222Z,12.30
2022-11-16T19:21:22.945Z,13.27
2022-11-16T19:23:52.279Z,15.45
2022-11-16T19:26:21.084Z,13.32
2022-11-16T19:28:49.896Z,15.52
2022-11-16T19:31:23.553Z,16.13
2022-11-16T19:33:59.951Z,15.82
2022-11-16T19:36:28.568Z,14.20
2022-11-16T19:38:56.293Z,11.65
2022-11-16T19:41:24.110Z,11.73
2022-11-16T19:43:59.911Z,12.13
2022-11-16T19:46:33.170Z,14.18
2022-11-16T19:49:01.342Z,12.77
2022-11-16T19:51:30.306Z,9.98
2022-11-16T19:54:02.507Z,12.40
2022-11-16T19:56:34.414Z,11.10
2022-11-16T19:59:01.471Z,13.40
2022-11-16T20:01:33.003Z,11.40
2022-11-16T20:04:03.499Z,10.88
2022-11-16T20:09:23.628Z,9.15
2022-11-16T20:11:50.582Z,11.05
2022-11-16T20:14:17.897Z,8.23
2022-11-16T20:16:47.790Z,9.88
2022-11-16T20:19:15.887Z,8.27
2022-11-16T20:21:48.111Z,7.22
2022-11-16T20:24:16.541Z,6.75
2022-11-16T20:26:46.826Z,7.70
2022-11-16T20:29:17.677Z,7.28
2022-11-16T20:31:46.284Z,6.82
2022-11-16T20:34:16.603Z,7.53
2022-11-16T20:37:08.785Z,7.18
2022-11-16T20:39:36.298Z,7.57
2022-11-16T20:42:03.388Z,7.15
2022-11-16T20:44:31.487Z,9.80
2022-11-16T20:46:58.746Z,10.52
2022-11-16T20:49:26.279Z,10.02
2022-11-16T20:51:53.625Z,8.82
2022-11-16T20:54:21.603Z,8.38
2022-11-16T20:56:49.987Z,10.35
2022-11-16T20:59:17.444Z,8.98
2022-11-16T21:01:47.882Z,8.50
2022-11-16T21:04:16.117Z,8.10
2022-11-16T21:06:43.100Z,8.57
2022-11-16T21:09:23.037Z,7.97
2022-11-16T21:12:09.472Z,7.93
2022-11-16T21:14:37.528Z,8.30
2022-11-16T21:17:04.971Z,7.70
2022-11-16T21:19:32.857Z,7.55
2022-11-16T21:21:59.721Z,8.15
2022-11-16T21:24:28.637Z,6.28
2022-11-16T21:26:55.576Z,5.85
2022-11-16T21:29:26.120Z,5.50
2022-11-16T21:31:55.187Z,5.90
2022-11-16T21:34:24.696Z,7.03
2022-11-16T21:36:52.792Z,6.15
2022-11-16T21:39:19.584Z,8.63
2022-11-16T21:41:47.303Z,7.65
2022-11-16T21:44:14.158Z,7.45
2022-11-16T21:46:43.678Z,5.88
2022-11-16T21:49:11.053Z,6.13
2022-11-16T21:51:38.074Z,5.63
2022-11-16T21:54:06.709Z,4.55
2022-11-16T21:56:33.789Z,4.80
2022-11-16T21:59:01.707Z,5.22
2022-11-16T22:01:48.797Z,4.38
2022-11-16T22:04:51.552Z,4.00
2022-11-16T22:07:33.936Z,3.65
2022-11-16T22:10:02.047Z,5.28
2022-11-16T22:12:29.559Z,4.82
2022-11-16T22:14:59.002Z,4.63
2022-11-16T22:17:26.514Z,4.03
2022-11-16T22:19:53.897Z,3.80
2022-11-16T22:22:21.274Z,4.13
2022-11-16T22:24:48.471Z,4.82
2022-11-16T22:27:18.937Z,6.03
2022-11-16T22:29:47.041Z,7.07
2022-11-16T22:32:13.980Z,9.05
2022-11-16T22:34:41.020Z,6.05
2022-11-16T22:37:07.803Z,5.53
2022-11-16T22:39:34.907Z,5.32
2022-11-16T22:42:01.773Z,5.60
2022-11-16T22:44:30.312Z,4.82
2022-11-16T22:46:57.100Z,3.95
2022-11-16T22:49:49.008Z,4.22
2022-11-16T22:52:17.854Z,3.53
2022-11-16T22:54:44.685Z,3.60
2022-11-16T22:57:15.564Z,3.15
2022-11-16T22:59:43.394Z,3.28
2022-11-16T23:02:10.082Z,3.35
2022-11-16T23:04:37.108Z,3.05
2022-11-16T23:07:03.917Z,4.15
2022-11-16T23:09:32.848Z,4.85
2022-11-16T23:12:18.171Z,6.55
2022-11-16T23:15:03.971Z,6.00
2022-11-16T23:17:30.974Z,6.40
2022-11-16T23:20:17.764Z,7.05
2022-11-16T23:23:03.510Z,5.35
2022-11-16T23:25:48.776Z,6.43
2022-11-16T23:28:16.871Z,6.72
2022-11-16T23:30:43.914Z,6.20
2022-11-16T23:33:13.367Z,6.85
2022-11-16T23:35:40.161Z,5.93
2022-11-16T23:38:08.400Z,6.78
2022-11-16T23:40:39.891Z,7.30
2022-11-16T23:43:28.751Z,7.22
2022-11-16T23:45:55.731Z,7.28
2022-11-16T23:48:22.492Z,5.47
2022-11-16T23:50:50.188Z,5.70
2022-11-16T23:53:16.944Z,5.65
2022-11-16T23:55:43.959Z,5.80
2022-11-16T23:58:14.846Z,6.60
